Time;durP1;ratioP1;P1;durP2;ratioP2;P2;SDS_P1;SDS_P2;PMS_P1;PMS_P2;Temp;Humidity;BMP_temperature;BMP_pressure;BME280_temperature;BME280_humidity;BME280_pressure;Samples;Min_cycle;Max_cycle;Signal;HPM_P1;HPM_P2
2023/09/16 00:01:41;;;;;;;18.38;12.50;;;;;;;-142.57;100.00;115900.28;5008729;28;20027;-76
2023/09/16 00:04:08;;;;;;;17.33;13.20;;;;;;;-142.57;100.00;115900.28;5007886;28;20382;-75
2023/09/16 00:06:34;;;;;;;16.27;12.75;;;;;;;-142.57;100.00;115900.28;5011546;28;20501;-79
2023/09/16 00:09:00;;;;;;;16.63;12.77;;;;;;;-142.57;100.00;115900.28;5012188;28;20113;-78
2023/09/16 00:11:25;;;;;;;15.98;12.35;;;;;;;-142.57;100.00;115900.28;5012302;28;20050;-78
2023/09/16 00:13:51;;;;;;;16.15;12.45;;;;;;;-142.57;100.00;115900.28;5015297;28;20033;-77
2023/09/16 00:16:17;;;;;;;16.73;12.82;;;;;;;-142.57;100.00;115900.28;5016648;28;20361;-80
2023/09/16 00:18:42;;;;;;;17.27;12.75;;;;;;;-142.57;100.00;115900.28;5014773;28;20041;-77
2023/09/16 00:21:10;;;;;;;15.82;12.60;;;;;;;-142.57;100.00;115900.28;5005215;28;20038;-79
2023/09/16 00:23:35;;;;;;;20.67;13.30;;;;;;;-142.57;100.00;115900.28;4995717;28;20468;-78
2023/09/16 00:26:03;;;;;;;16.05;13.25;;;;;;;-142.57;100.00;115900.28;4995432;28;20034;-78
2023/09/16 00:28:30;;;;;;;18.48;13.50;;;;;;;-142.57;100.00;115900.28;5010517;28;20061;-76
2023/09/16 00:30:57;;;;;;;15.77;13.00;;;;;;;-142.57;100.00;115900.28;5014848;28;20473;-78
2023/09/16 00:33:23;;;;;;;16.70;13.35;;;;;;;-142.57;100.00;115900.28;5014492;28;20040;-78
2023/09/16 00:35:48;;;;;;;18.42;13.55;;;;;;;-142.57;100.00;115900.28;5016053;28;20893;-76
2023/09/16 00:38:15;;;;;;;15.88;13.75;;;;;;;-142.57;100.00;115900.28;5014375;28;20046;-78
2023/09/16 00:40:43;;;;;;;18.27;14.45;;;;;;;-142.57;100.00;115900.28;5014666;28;20117;-77
2023/09/16 00:43:08;;;;;;;22.73;15.05;;;;;;;-142.57;100.00;115900.28;5015690;28;20029;-78
2023/09/16 00:45:34;;;;;;;25.92;14.90;;;;;;;-142.57;100.00;115900.28;5015875;28;20457;-79
2023/09/16 00:48:00;;;;;;;15.85;13.02;;;;;;;-142.57;100.00;115900.28;5003178;28;20027;-78
2023/09/16 00:50:26;;;;;;;20.33;14.98;;;;;;;-142.57;100.00;115900.28;4994493;28;20118;-80
2023/09/16 00:52:59;;;;;;;19.70;14.48;;;;;;;-142.57;100.00;115900.28;4994741;28;20512;-78
2023/09/16 00:55:27;;;;;;;20.35;15.10;;;;;;;-142.57;100.00;115900.28;4996273;28;20058;-77
2023/09/16 00:57:55;;;;;;;20.10;14.07;;;;;;;-142.57;100.00;115900.28;4995772;28;20065;-79
2023/09/16 01:00:26;;;;;;;16.20;12.40;;;;;;;-142.57;100.00;115900.28;4996062;28;20084;-77
2023/09/16 01:02:52;;;;;;;18.80;12.05;;;;;;;-142.57;100.00;115900.28;5000184;28;20035;-76
2023/09/16 01:05:18;;;;;;;17.95;12.23;;;;;;;-142.57;100.00;115900.28;5010550;28;20492;-78
2023/09/16 01:07:49;;;;;;;15.93;11.55;;;;;;;-142.57;100.00;115900.28;5015539;28;20030;-80
2023/09/16 01:10:18;;;;;;;18.42;12.52;;;;;;;-142.57;100.00;115900.28;5015678;28;20038;-80
2023/09/16 01:12:48;;;;;;;19.88;11.90;;;;;;;-142.57;100.00;115900.28;5011034;28;20062;-80
2023/09/16 01:15:16;;;;;;;16.23;12.15;;;;;;;-142.57;100.00;115900.28;5021118;28;20058;-81
2023/09/16 01:18:21;;;;;;;17.10;12.55;;;;;;;-142.57;100.00;115900.28;5023223;28;20033;-80
2023/09/16 01:20:50;;;;;;;18.30;13.20;;;;;;;-142.57;100.00;115900.28;4954832;29;20052;-79
2023/09/16 01:23:19;;;;;;;16.27;13.40;;;;;;;-142.57;100.00;115900.28;4954219;28;20458;-79
2023/09/16 01:25:45;;;;;;;20.08;14.88;;;;;;;-142.57;100.00;115900.28;4954525;29;20047;-80
2023/09/16 01:28:10;;;;;;;19.25;14.27;;;;;;;-142.57;100.00;115900.28;4937661;29;20040;-78
2023/09/16 01:30:42;;;;;;;20.65;15.57;;;;;;;-142.57;100.00;115900.28;4937059;28;20036;-79
2023/09/16 01:33:22;;;;;;;20.27;14.60;;;;;;;-142.57;100.00;115900.28;4994216;28;20035;-77
2023/09/16 01:35:50;;;;;;;20.02;15.52;;;;;;;-142.57;100.00;115900.28;5006661;28;20061;-79
2023/09/16 01:38:21;;;;;;;20.92;15.68;;;;;;;-142.57;100.00;115900.28;5004146;28;20039;-79
2023/09/16 01:40:48;;;;;;;21.70;16.35;;;;;;;-142.57;100.00;115900.28;4995570;28;20434;-81
2023/09/16 01:43:15;;;;;;;24.45;15.68;;;;;;;-142.57;100.00;115900.28;4993807;28;20027;-80
2023/09/16 01:45:44;;;;;;;26.40;16.25;;;;;;;-142.57;100.00;115900.28;4995182;28;20088;-78
2023/09/16 01:48:11;;;;;;;22.13;15.95;;;;;;;-142.57;100.00;115900.28;5001379;28;20025;-79
2023/09/16 01:50:37;;;;;;;22.85;14.60;;;;;;;-142.57;100.00;115900.28;5014832;28;20085;-80
2023/09/16 01:53:05;;;;;;;20.27;15.25;;;;;;;-142.57;100.00;115900.28;5014618;28;20040;-78
2023/09/16 01:55:31;;;;;;;20.42;14.57;;;;;;;-142.57;100.00;115900.28;5006921;28;20032;-78
2023/09/16 01:57:57;;;;;;;19.10;14.88;;;;;;;-142.57;100.00;115900.28;4993591;28;20064;-80
2023/09/16 02:00:23;;;;;;;23.73;16.70;;;;;;;-142.57;100.00;115900.28;4999451;28;20032;-79
2023/09/16 02:02:50;;;;;;;22.02;17.13;;;;;;;-142.57;100.00;115900.28;5007589;28;20485;-79
2023/09/16 02:05:17;;;;;;;21.65;16.73;;;;;;;-142.57;100.00;115900.28;5014225;28;20030;-81
2023/09/16 02:07:42;;;;;;;24.85;16.30;;;;;;;-142.57;100.00;115900.28;5013231;28;20384;-76
2023/09/16 02:10:09;;;;;;;22.90;15.55;;;;;;;-142.57;100.00;115900.28;5012837;28;20048;-80
2023/09/16 02:12:36;;;;;;;22.98;15.00;;;;;;;-142.57;100.00;115900.28;5013078;28;20045;-79
2023/09/16 02:15:06;;;;;;;19.40;14.10;;;;;;;-142.57;100.00;115900.28;5004741;28;20034;-80
2023/09/16 02:17:33;;;;;;;20.98;14.07;;;;;;;-142.57;100.00;115900.28;4993139;28;20074;-77
2023/09/16 02:19:58;;;;;;;19.27;14.68;;;;;;;-142.57;100.00;115900.28;4992998;28;20042;-78
2023/09/16 02:22:24;;;;;;;17.60;13.65;;;;;;;-142.57;100.00;115900.28;4994157;28;20034;-80
2023/09/16 02:24:49;;;;;;;21.13;14.25;;;;;;;-142.57;100.00;115900.28;5012164;28;20026;-81
2023/09/16 02:27:16;;;;;;;16.77;12.98;;;;;;;-142.57;100.00;115900.28;5014035;28;20034;-77
2023/09/16 02:29:42;;;;;;;18.55;12.27;;;;;;;-142.57;100.00;115900.28;5013775;28;20388;-78
2023/09/16 02:32:07;;;;;;;18.33;14.02;;;;;;;-142.57;100.00;115900.28;5012403;28;20030;-80
2023/09/16 02:34:35;;;;;;;18.10;14.10;;;;;;;-142.57;100.00;115900.28;5011831;28;20117;-78
2023/09/16 02:37:01;;;;;;;17.65;12.98;;;;;;;-142.57;100.00;115900.28;5011860;28;20034;-79
2023/09/16 02:39:28;;;;;;;18.90;12.60;;;;;;;-142.57;100.00;115900.28;5012387;28;20131;-78
2023/09/16 02:41:54;;;;;;;18.05;14.05;;;;;;;-142.57;100.00;115900.28;5012534;28;20121;-80
2023/09/16 02:44:19;;;;;;;20.08;14.43;;;;;;;-142.57;100.00;115900.28;5013555;28;20026;-79
2023/09/16 02:46:46;;;;;;;19.75;14.05;;;;;;;-142.57;100.00;115900.28;5012449;28;20040;-77
2023/09/16 02:49:13;;;;;;;20.33;14.77;;;;;;;-142.57;100.00;115900.28;5011930;28;20034;-79
2023/09/16 02:51:38;;;;;;;19.70;14.55;;;;;;;-142.57;100.00;115900.28;5012150;28;20053;-79
2023/09/16 02:54:06;;;;;;;19.80;15.32;;;;;;;-142.57;100.00;115900.28;5011985;28;20026;-78
2023/09/16 02:56:32;;;;;;;20.15;14.25;;;;;;;-142.57;100.00;115900.28;5012628;28;20030;-77
2023/09/16 02:58:57;;;;;;;20.63;14.30;;;;;;;-142.57;100.00;115900.28;5013709;28;20104;-82
2023/09/16 03:01:24;;;;;;;20.42;15.15;;;;;;;-142.57;100.00;115900.28;5012401;28;20489;-81
2023/09/16 03:03:50;;;;;;;21.63;16.00;;;;;;;-142.57;100.00;115900.28;5013155;28;20130;-80
2023/09/16 03:06:15;;;;;;;20.42;15.05;;;;;;;-142.57;100.00;115900.28;5012312;28;20055;-81
2023/09/16 03:08:41;;;;;;;20.85;14.52;;;;;;;-142.57;100.00;115900.28;5012825;28;20038;-83
2023/09/16 03:11:07;;;;;;;19.92;14.00;;;;;;;-142.57;100.00;115900.28;5011765;28;20128;-79
2023/09/16 03:13:35;;;;;;;18.75;13.68;;;;;;;-142.57;100.00;115900.28;5011696;28;20400;-78
2023/09/16 03:16:18;;;;;;;21.98;12.75;;;;;;;-142.57;100.00;115900.28;5011821;28;20026;-81
2023/09/16 03:18:48;;;;;;;18.45;13.80;;;;;;;-142.57;100.00;115900.28;5011539;28;20045;-80
2023/09/16 03:21:15;;;;;;;21.58;14.40;;;;;;;-142.57;100.00;115900.28;5011498;28;20041;-79
2023/09/16 03:23:42;;;;;;;19.58;13.65;;;;;;;-142.57;100.00;115900.28;5010398;28;20124;-81
2023/09/16 03:26:09;;;;;;;19.95;13.52;;;;;;;-142.57;100.00;115900.28;5012862;28;20528;-78
2023/09/16 03:28:35;;;;;;;17.73;13.93;;;;;;;-142.57;100.00;115900.28;5011299;28;20060;-80
2023/09/16 03:31:01;;;;;;;18.85;14.00;;;;;;;-142.57;100.00;115900.28;5011595;28;20025;-78
2023/09/16 03:33:28;;;;;;;20.92;14.25;;;;;;;-142.57;100.00;115900.28;5015077;28;20108;-79
2023/09/16 03:35:54;;;;;;;19.45;14.05;;;;;;;-142.57;100.00;115900.28;5020659;28;20033;-80
2023/09/16 03:38:19;;;;;;;18.55;14.38;;;;;;;-142.57;100.00;115900.28;5012712;28;20064;-80
2023/09/16 03:40:45;;;;;;;18.10;14.13;;;;;;;-142.57;100.00;115900.28;5012458;28;20067;-76
2023/09/16 03:43:10;;;;;;;19.73;14.02;;;;;;;-142.57;100.00;115900.28;5011225;28;20076;-78
2023/09/16 03:45:36;;;;;;;25.17;13.95;;;;;;;-142.57;100.00;115900.28;5012064;28;20546;-79
2023/09/16 03:48:02;;;;;;;21.25;14.65;;;;;;;-142.57;100.00;115900.28;5012049;28;20076;-81
2023/09/16 03:50:28;;;;;;;21.55;15.63;;;;;;;-142.57;100.00;115900.28;5011177;28;20034;-79
2023/09/16 03:52:54;;;;;;;23.88;16.73;;;;;;;-142.57;100.00;115900.28;5011164;28;20041;-79
2023/09/16 03:55:19;;;;;;;19.75;15.07;;;;;;;-142.57;100.00;115900.28;5011058;28;20037;-80
2023/09/16 03:57:45;;;;;;;17.45;14.15;;;;;;;-142.57;100.00;115900.28;5012666;28;20392;-79
2023/09/16 04:00:13;;;;;;;18.98;15.05;;;;;;;-142.57;100.00;115900.28;5010654;28;20080;-79
2023/09/16 04:02:38;;;;;;;21.42;14.80;;;;;;;-142.57;100.00;115900.28;4996806;28;20402;-81
2023/09/16 04:05:05;;;;;;;19.48;14.77;;;;;;;-142.57;100.00;115900.28;4991089;28;20034;-79
2023/09/16 04:07:31;;;;;;;21.05;14.43;;;;;;;-142.57;100.00;115900.28;4991067;28;20035;-80
2023/09/16 04:09:57;;;;;;;24.95;14.75;;;;;;;-142.57;100.00;115900.28;4992643;28;20050;-82
2023/09/16 04:12:23;;;;;;;22.17;14.70;;;;;;;-142.57;100.00;115900.28;4991530;28;20089;-79
2023/09/16 04:14:52;;;;;;;23.40;13.73;;;;;;;-142.57;100.00;115900.28;4999749;28;20034;-78
2023/09/16 04:17:19;;;;;;;16.75;13.23;;;;;;;-142.57;100.00;115900.28;5011151;28;20069;-79
2023/09/16 04:19:44;;;;;;;20.02;14.52;;;;;;;-142.57;100.00;115900.28;5010827;28;20054;-80
2023/09/16 04:22:10;;;;;;;18.98;13.73;;;;;;;-142.57;100.00;115900.28;5012134;28;20069;-77
2023/09/16 04:24:36;;;;;;;20.95;14.55;;;;;;;-142.57;100.00;115900.28;5010942;28;20152;-79
2023/09/16 04:27:01;;;;;;;23.25;14.63;;;;;;;-142.57;100.00;115900.28;5011277;28;20100;-78
2023/09/16 04:29:27;;;;;;;18.77;13.52;;;;;;;-142.57;100.00;115900.28;5011866;28;20065;-79
2023/09/16 04:31:53;;;;;;;18.17;13.45;;;;;;;-142.57;100.00;115900.28;5010988;28;20429;-79
2023/09/16 04:34:20;;;;;;;22.55;15.30;;;;;;;-142.57;100.00;115900.28;5010941;28;20069;-80
2023/09/16 04:36:45;;;;;;;25.92;16.42;;;;;;;-142.57;100.00;115900.28;4994296;28;20062;-77
2023/09/16 04:39:12;;;;;;;21.67;14.90;;;;;;;-142.57;100.00;115900.28;5008940;28;20030;-80
2023/09/16 04:41:37;;;;;;;27.23;16.83;;;;;;;-142.57;100.00;115900.28;4985664;28;20041;-77
2023/09/16 04:44:04;;;;;;;22.92;16.90;;;;;;;-142.57;100.00;115900.28;4987626;28;20033;-82
2023/09/16 04:46:31;;;;;;;24.83;17.23;;;;;;;-142.57;100.00;115900.28;4996993;28;20437;-76
2023/09/16 04:49:03;;;;;;;23.75;17.75;;;;;;;-142.57;100.00;115900.28;5005120;28;20088;-79
2023/09/16 04:51:29;;;;;;;23.52;17.90;;;;;;;-142.57;100.00;115900.28;4991376;28;20117;-79
2023/09/16 04:53:56;;;;;;;26.73;17.58;;;;;;;-142.57;100.00;115900.28;4992696;28;20551;-78
2023/09/16 04:56:25;;;;;;;25.83;18.17;;;;;;;-142.57;100.00;115900.28;5001072;28;20037;-76
2023/09/16 04:58:54;;;;;;;32.78;16.52;;;;;;;-142.57;100.00;115900.28;5012596;28;20042;-78
2023/09/16 05:01:21;;;;;;;22.08;14.63;;;;;;;-142.57;100.00;115900.28;5014412;28;20037;-78
2023/09/16 05:03:47;;;;;;;22.05;14.07;;;;;;;-142.57;100.00;115900.28;5014377;28;20124;-78
2023/09/16 05:06:13;;;;;;;21.08;14.30;;;;;;;-142.57;100.00;115900.28;5013988;28;20026;-80
2023/09/16 05:08:38;;;;;;;17.30;14.50;;;;;;;-142.57;100.00;115900.28;4998413;28;20143;-79
2023/09/16 05:11:05;;;;;;;22.25;15.23;;;;;;;-142.57;100.00;115900.28;5007768;28;20061;-78
2023/09/16 05:13:41;;;;;;;20.95;15.23;;;;;;;-142.57;100.00;115900.28;4994617;28;20042;-80
2023/09/16 05:16:10;;;;;;;25.08;16.67;;;;;;;-142.57;100.00;115900.28;4994814;28;20039;-78
2023/09/16 05:18:36;;;;;;;22.75;16.17;;;;;;;-142.57;100.00;115900.28;4996286;28;20501;-77
2023/09/16 05:21:02;;;;;;;20.45;16.08;;;;;;;-142.57;100.00;115900.28;5014718;28;20030;-79
2023/09/16 05:23:33;;;;;;;23.20;16.17;;;;;;;-142.57;100.00;115900.28;5015142;28;20366;-82
2023/09/16 05:26:04;;;;;;;23.67;15.38;;;;;;;-142.57;100.00;115900.28;5015725;28;20405;-77
2023/09/16 05:28:32;;;;;;;22.10;16.75;;;;;;;-142.57;100.00;115900.28;5021614;28;20065;-79
2023/09/16 05:31:00;;;;;;;25.35;17.83;;;;;;;-142.57;100.00;115900.28;5034395;28;20045;-80
2023/09/16 05:33:27;;;;;;;23.25;18.25;;;;;;;-142.57;100.00;115900.28;5035329;28;20089;-80
2023/09/16 05:35:53;;;;;;;24.25;18.00;;;;;;;-142.57;100.00;115900.28;5033871;28;20049;-77
2023/09/16 05:38:18;;;;;;;25.67;18.23;;;;;;;-142.57;100.00;115900.28;5016921;28;20042;-80
2023/09/16 05:40:44;;;;;;;30.67;19.48;;;;;;;-142.57;100.00;115900.28;5019973;28;20096;-81
2023/09/16 05:43:10;;;;;;;30.42;20.00;;;;;;;-142.57;100.00;115900.28;5016718;28;20501;-82
2023/09/16 05:45:36;;;;;;;26.73;19.95;;;;;;;-142.57;100.00;115900.28;5014846;28;20065;-79
2023/09/16 05:48:04;;;;;;;25.77;19.42;;;;;;;-142.57;100.00;115900.28;5014145;28;20037;-82
2023/09/16 05:50:32;;;;;;;27.98;18.88;;;;;;;-142.57;100.00;115900.28;5014207;28;20037;-82
2023/09/16 05:52:58;;;;;;;37.63;21.27;;;;;;;-142.57;100.00;115900.28;5014817;28;20500;-78
2023/09/16 05:55:24;;;;;;;31.70;21.38;;;;;;;-142.57;100.00;115900.28;5014389;28;20028;-82
2023/09/16 05:57:50;;;;;;;29.73;21.25;;;;;;;-142.57;100.00;115900.28;5015214;28;20037;-80
2023/09/16 06:00:16;;;;;;;36.72;21.45;;;;;;;-142.57;100.00;115900.28;5014629;28;20084;-82
2023/09/16 06:02:42;;;;;;;38.55;21.73;;;;;;;-142.57;100.00;115900.28;5010982;28;21225;-80
2023/09/16 06:05:11;;;;;;;31.17;20.98;;;;;;;-142.57;100.00;115900.28;5004213;28;20468;-79
2023/09/16 06:07:41;;;;;;;37.53;22.20;;;;;;;-142.57;100.00;115900.28;5005808;28;20034;-79
2023/09/16 06:10:15;;;;;;;36.22;23.92;;;;;;;-142.57;100.00;115900.28;4999716;28;20440;-79
2023/09/16 06:12:40;;;;;;;33.78;23.17;;;;;;;-142.57;100.00;115900.28;4995705;28;20074;-82
2023/09/16 06:15:08;;;;;;;41.95;23.88;;;;;;;-142.57;100.00;115900.28;4994140;28;20096;-80
2023/09/16 06:17:33;;;;;;;31.83;23.58;;;;;;;-142.57;100.00;115900.28;4994037;28;20046;-80
2023/09/16 06:19:59;;;;;;;32.97;25.05;;;;;;;-142.57;100.00;115900.28;4993875;28;20088;-81
2023/09/16 06:22:24;;;;;;;32.00;21.48;;;;;;;-142.57;100.00;115900.28;4993931;28;20034;-82
2023/09/16 06:24:57;;;;;;;31.48;21.75;;;;;;;-142.57;100.00;115900.28;4995489;28;20031;-80
2023/09/16 06:27:24;;;;;;;34.13;23.48;;;;;;;-142.57;100.00;115900.28;5010367;28;20557;-79
2023/09/16 06:29:50;;;;;;;33.53;24.30;;;;;;;-142.57;100.00;115900.28;5013485;28;20018;-80
2023/09/16 06:32:18;;;;;;;32.50;23.00;;;;;;;-142.57;100.00;115900.28;5015504;28;20040;-79
2023/09/16 06:34:45;;;;;;;33.40;23.92;;;;;;;-142.57;100.00;115900.28;5017614;28;20153;-78
2023/09/16 06:37:10;;;;;;;27.77;19.75;;;;;;;-142.57;100.00;115900.28;5011274;28;20069;-79
2023/09/16 06:39:37;;;;;;;26.90;18.95;;;;;;;-142.57;100.00;115900.28;4998127;28;20507;-82
2023/09/16 06:42:04;;;;;;;25.83;18.42;;;;;;;-142.57;100.00;115900.28;5010121;28;20049;-81
2023/09/16 06:44:33;;;;;;;30.42;19.75;;;;;;;-142.57;100.00;115900.28;5010550;28;20034;-81
2023/09/16 06:46:59;;;;;;;30.45;20.67;;;;;;;-142.57;100.00;115900.28;5005606;28;20074;-80
2023/09/16 06:49:25;;;;;;;25.70;19.58;;;;;;;-142.57;100.00;115900.28;5008349;28;20038;-83
2023/09/16 06:51:50;;;;;;;34.17;21.27;;;;;;;-142.57;100.00;115900.28;5004685;28;20038;-81
2023/09/16 06:54:16;;;;;;;28.00;19.95;;;;;;;-142.57;100.00;115900.28;5011833;28;20031;-80
2023/09/16 06:56:41;;;;;;;24.08;19.13;;;;;;;-142.57;100.00;115900.28;5006756;28;20141;-80
2023/09/16 06:59:07;;;;;;;36.58;20.75;;;;;;;-142.57;100.00;115900.28;5009890;28;20042;-82
2023/09/16 07:01:32;;;;;;;29.15;20.27;;;;;;;-142.57;100.00;115900.28;4995369;28;20031;-80
2023/09/16 07:03:58;;;;;;;27.27;20.15;;;;;;;-142.57;100.00;115900.28;5012198;28;20022;-79
2023/09/16 07:06:23;;;;;;;32.45;19.83;;;;;;;-142.57;100.00;115900.28;5025681;28;20417;-78
2023/09/16 07:08:49;;;;;;;31.40;21.33;;;;;;;-142.57;100.00;115900.28;5015946;28;20428;-78
2023/09/16 07:11:17;;;;;;;26.92;19.10;;;;;;;-142.57;100.00;115900.28;5014779;28;20030;-79
2023/09/16 07:13:43;;;;;;;22.98;18.88;;;;;;;-142.57;100.00;115900.28;5014145;28;20038;-81
2023/09/16 07:16:11;;;;;;;27.60;20.35;;;;;;;-142.57;100.00;115900.28;4995749;28;20080;-79
2023/09/16 07:18:37;;;;;;;27.98;20.20;;;;;;;-142.57;100.00;115900.28;4993980;28;20026;-80
2023/09/16 07:21:03;;;;;;;25.15;19.55;;;;;;;-142.57;100.00;115900.28;4999305;28;20038;-79
2023/09/16 07:23:28;;;;;;;27.27;21.02;;;;;;;-142.57;100.00;115900.28;4994289;28;20389;-80
2023/09/16 07:25:59;;;;;;;32.35;20.50;;;;;;;-142.57;100.00;115900.28;4996500;28;20042;-79
2023/09/16 07:28:26;;;;;;;33.83;22.42;;;;;;;-142.57;100.00;115900.28;4996649;28;20065;-80
2023/09/16 07:30:52;;;;;;;27.90;21.65;;;;;;;-142.57;100.00;115900.28;5013128;28;20038;-80
2023/09/16 07:33:21;;;;;;;30.23;21.23;;;;;;;-142.57;100.00;115900.28;5014650;28;20045;-80
2023/09/16 07:35:48;;;;;;;32.80;23.70;;;;;;;-142.57;100.00;115900.28;5014896;28;20505;-80
2023/09/16 07:38:15;;;;;;;37.83;23.98;;;;;;;-142.57;100.00;115900.28;4996467;28;20511;-82
2023/09/16 07:40:41;;;;;;;30.10;22.50;;;;;;;-142.57;100.00;115900.28;5008582;28;20030;-82
2023/09/16 07:43:08;;;;;;;34.38;24.88;;;;;;;-142.57;100.00;115900.28;4994334;28;20035;-80
2023/09/16 07:45:34;;;;;;;33.55;23.20;;;;;;;-142.57;100.00;115900.28;4994259;28;20022;-78
2023/09/16 07:48:00;;;;;;;37.13;24.92;;;;;;;-142.57;100.00;115900.28;4994235;28;20058;-80
2023/09/16 07:50:25;;;;;;;32.15;22.65;;;;;;;-142.57;100.00;115900.28;5004562;28;20124;-82
2023/09/16 07:52:51;;;;;;;33.20;24.05;;;;;;;-142.57;100.00;115900.28;4997153;28;20118;-79
2023/09/16 07:55:17;;;;;;;39.75;29.67;;;;;;;-142.57;100.00;115900.28;4994291;28;20034;-83
2023/09/16 07:57:42;;;;;;;45.72;28.65;;;;;;;-142.57;100.00;115900.28;4994159;28;20023;-82
2023/09/16 08:00:08;;;;;;;50.63;32.35;;;;;;;-142.57;100.00;115900.28;4994063;28;20041;-85
2023/09/16 08:02:40;;;;;;;;;;;;;;;-142.57;100.00;115900.28;5003412;28;20041;-84
2023/09/16 08:05:06;;;;;;;41.80;29.27;;;;;;;-142.57;100.00;115900.28;5013888;28;19917;-84
2023/09/16 08:07:34;;;;;;;44.15;28.15;;;;;;;-142.57;100.00;115900.28;5013829;28;20038;-79
2023/09/16 08:10:01;;;;;;;44.60;28.08;;;;;;;-142.57;100.00;115900.28;5014373;28;20030;-84
2023/09/16 08:12:26;;;;;;;39.75;28.13;;;;;;;-142.57;100.00;115900.28;5010797;28;20033;-83
2023/09/16 08:14:52;;;;;;;40.00;28.02;;;;;;;-142.57;100.00;115900.28;5001083;28;20030;-81
2023/09/16 08:17:17;;;;;;;39.00;28.83;;;;;;;-142.57;100.00;115900.28;4995310;28;20486;-81
2023/09/16 08:19:43;;;;;;;43.85;29.48;;;;;;;-142.57;100.00;115900.28;5007096;28;20026;-84
2023/09/16 08:22:09;;;;;;;44.80;31.58;;;;;;;-142.57;100.00;115900.28;5007079;28;20045;-82
2023/09/16 08:24:35;;;;;;;43.10;30.75;;;;;;;-142.57;100.00;115900.28;4984961;28;20117;-82
2023/09/16 08:27:01;;;;;;;47.42;29.63;;;;;;;-142.57;100.00;115900.28;5003395;28;20437;-79
2023/09/16 08:29:27;;;;;;;45.13;30.13;;;;;;;-142.57;100.00;115900.28;5001841;28;20425;-83
2023/09/16 08:31:52;;;;;;;42.53;29.98;;;;;;;-142.57;100.00;115900.28;4993392;28;20033;-82
2023/09/16 08:34:18;;;;;;;42.88;30.83;;;;;;;-142.57;100.00;115900.28;4995742;28;20053;-81
2023/09/16 08:36:43;;;;;;;40.63;30.23;;;;;;;-142.57;100.00;115900.28;4999207;28;20050;-84
2023/09/16 08:39:11;;;;;;;44.97;28.45;;;;;;;-142.57;100.00;115900.28;5002715;28;20068;-78
2023/09/16 08:41:42;;;;;;;39.25;30.02;;;;;;;-142.57;100.00;115900.28;5008343;28;20045;-79
2023/09/16 08:44:10;;;;;;;47.58;32.15;;;;;;;-142.57;100.00;115900.28;5005083;28;20489;-75
2023/09/16 08:46:41;;;;;;;47.40;33.92;;;;;;;-142.57;100.00;115900.28;4997250;28;20030;-81
2023/09/16 08:49:08;;;;;;;47.55;32.30;;;;;;;-142.57;100.00;115900.28;4998233;28;20034;-80
2023/09/16 08:51:39;;;;;;;43.35;31.40;;;;;;;-142.57;100.00;115900.28;5002458;28;20409;-80
2023/09/16 08:54:07;;;;;;;47.35;32.25;;;;;;;-142.57;100.00;115900.28;5002039;28;20452;-80
2023/09/16 08:56:33;;;;;;;48.63;30.52;;;;;;;-142.57;100.00;115900.28;5015846;28;20034;-81
2023/09/16 08:59:00;;;;;;;41.83;26.83;;;;;;;-142.57;100.00;115900.28;5017433;28;20049;-79
2023/09/16 09:01:25;;;;;;;35.90;24.83;;;;;;;-142.57;100.00;115900.28;5020529;28;20045;-78
2023/09/16 09:03:53;;;;;;;36.67;25.65;;;;;;;-142.57;100.00;115900.28;5022313;28;20034;-77
2023/09/16 09:06:20;;;;;;;36.72;26.98;;;;;;;-142.57;100.00;115900.28;5013341;28;20042;-78
2023/09/16 09:08:46;;;;;;;34.03;25.25;;;;;;;-142.57;100.00;115900.28;4999714;28;20397;-77
2023/09/16 09:11:14;;;;;;;37.53;27.63;;;;;;;-142.57;100.00;115900.28;5016225;28;20041;-76
2023/09/16 09:13:45;;;;;;;38.70;28.90;;;;;;;-142.57;100.00;115900.28;5016772;28;20499;-76
2023/09/16 09:16:16;;;;;;;40.03;27.83;;;;;;;-142.57;100.00;115900.28;5017099;28;20034;-77
2023/09/16 09:18:44;;;;;;;44.25;26.98;;;;;;;-142.57;100.00;115900.28;5016454;28;20381;-81
2023/09/16 09:21:10;;;;;;;42.22;26.73;;;;;;;-142.57;100.00;115900.28;5016979;28;20037;-77
2023/09/16 09:23:36;;;;;;;37.83;24.83;;;;;;;-142.57;100.00;115900.28;5016425;28;20149;-78
2023/09/16 09:26:01;;;;;;;39.03;24.30;;;;;;;-142.57;100.00;115900.28;5016533;28;20121;-81
2023/09/16 09:28:28;;;;;;;33.72;24.40;;;;;;;-142.57;99.89;115900.28;5016885;28;20176;-78
2023/09/16 09:30:55;;;;;;;33.17;23.90;;;;;;;-142.57;100.00;115900.28;5018316;28;20038;-79
2023/09/16 09:33:21;;;;;;;32.45;22.88;;;;;;;-142.57;98.72;115900.28;5018472;28;20061;-78
2023/09/16 09:35:47;;;;;;;35.63;23.73;;;;;;;-142.57;94.95;115900.28;5015067;28;20018;-76
2023/09/16 09:38:14;;;;;;;31.55;22.95;;;;;;;-142.57;97.33;115900.28;5015958;28;20045;-76
2023/09/16 09:40:56;;;;;;;36.13;24.90;;;;;;;-142.57;98.99;115900.28;5016545;28;20168;-78
2023/09/16 09:43:22;;;;;;;34.55;24.83;;;;;;;-142.57;97.17;115900.28;5016028;28;20045;-79
2023/09/16 09:45:47;;;;;;;35.55;25.65;;;;;;;-142.57;99.82;115900.28;5016120;28;20384;-78
2023/09/16 09:48:13;;;;;;;34.38;26.48;;;;;;;-142.57;98.59;115900.28;5016235;28;20030;-79
2023/09/16 09:50:38;;;;;;;36.22;26.90;;;;;;;-142.57;98.18;115900.28;5016509;28;20042;-77
2023/09/16 09:53:04;;;;;;;34.95;25.10;;;;;;;-142.57;97.04;115900.28;5015944;28;20040;-78
2023/09/16 09:55:30;;;;;;;38.35;24.95;;;;;;;-142.57;95.77;115900.28;5015816;28;20037;-77
2023/09/16 09:57:57;;;;;;;39.35;24.50;;;;;;;-142.57;94.27;115900.28;5015751;28;20030;-79
2023/09/16 10:00:23;;;;;;;38.53;25.55;;;;;;;-142.57;94.62;115900.28;5014647;28;20046;-83
2023/09/16 10:02:50;;;;;;;31.77;23.30;;;;;;;-142.57;96.44;115900.28;5016182;28;20473;-80
2023/09/16 10:05:17;;;;;;;34.28;25.02;;;;;;;-142.57;94.51;115900.28;5014799;28;20120;-83
2023/09/16 10:07:44;;;;;;;48.40;25.60;;;;;;;-142.57;97.12;115900.28;5015724;28;20101;-81
2023/09/16 10:10:23;;;;;;;36.83;23.90;;;;;;;-142.57;96.38;115900.28;5016203;28;20072;-82
2023/09/16 10:12:53;;;;;;;37.63;24.75;;;;;;;-142.57;97.61;115900.28;5015877;28;20033;-81
2023/09/16 10:15:30;;;;;;;35.55;24.02;;;;;;;-142.57;95.55;115900.28;5015790;28;20036;-81
2023/09/16 10:17:56;;;;;;;36.42;22.33;;;;;;;-142.57;95.00;115900.28;5015404;28;20481;-81
2023/09/16 10:20:22;;;;;;;34.03;22.35;;;;;;;-142.57;93.01;115900.28;5013484;28;20038;-80
2023/09/16 10:22:48;;;;;;;28.90;20.63;;;;;;;-142.57;94.25;115900.28;5014839;28;20033;-80
2023/09/16 10:25:16;;;;;;;31.23;20.40;;;;;;;-142.57;93.35;115900.28;5015895;28;20057;-82
2023/09/16 10:27:57;;;;;;;31.35;19.98;;;;;;;-142.57;95.11;115900.28;5014678;28;20040;-83
2023/09/16 10:30:26;;;;;;;27.88;19.83;;;;;;;-142.57;94.44;115900.28;5015503;28;20048;-82
2023/09/16 10:32:53;;;;;;;25.63;18.83;;;;;;;-142.57;91.86;115900.28;5015078;28;20390;-81
2023/09/16 10:35:21;;;;;;;32.78;23.23;;;;;;;-142.57;91.99;115900.28;5015059;28;20022;-81
2023/09/16 10:37:51;;;;;;;35.95;21.23;;;;;;;-142.57;93.03;115900.28;5015425;28;20038;-80
2023/09/16 10:40:19;;;;;;;29.98;19.67;;;;;;;-142.57;89.23;115900.28;5015402;28;20049;-85
2023/09/16 10:42:46;;;;;;;31.40;20.25;;;;;;;-142.57;94.84;115900.28;5014192;28;20540;-83
2023/09/16 10:45:17;;;;;;;29.25;19.00;;;;;;;-142.57;91.40;115900.28;5015498;28;20393;-82
2023/09/16 10:47:46;;;;;;;31.42;18.77;;;;;;;-142.57;90.97;115900.28;4998937;28;20046;-84